CheckWX is a tool to help pilots better visualize weather data.  It is not intended as a substitute for an official pre-flight weather briefing.

12:45:57 UTC

KTFP METAR
McCampbell-Porter Airport
Ingleside, Texas, USA
Current

31 mins ago

KTFP 221215Z AUTO 05007KT 1 1/4SM BR OVC001 13/12 A2990 RMK AO2 T01320121 PNO
Observed
Feb-22 @ 12:15 UTC
Wind
  • 050° at 7 KTS
Visibility
1 1/4 SM
Flight Rules
LIFR
Conditions
Mist
Cloud Levels
  • Overcast at 100' AGL
Temperature
13°C / 55°F
Dewpoint
12°C / 54°F
Humidity
94%
Altimeter
29.9" Hg
Pressure
1012.52 hPa
Previous

51 mins ago

KTFP 221155Z AUTO 05009KT 1 1/4SM BR OVC001 13/12 A2990 RMK AO2 T01310121 PNO
Observed
Feb-22 @ 11:55 UTC
Wind
  • 050° at 9 KTS
Visibility
1 1/4 SM
Flight Rules
LIFR
Conditions
Mist
Cloud Levels
  • Overcast at 100' AGL
Temperature
13°C / 55°F
Dewpoint
12°C / 54°F
Humidity
94%
Altimeter
29.9" Hg
Pressure
1012.52 hPa
Previous

1 hour ago

KTFP 221135Z AUTO 04007KT 1 1/2SM BR OVC001 13/12 A2990 RMK AO2 T01320121 PNO
Observed
Feb-22 @ 11:35 UTC
Wind
  • 040° at 7 KTS
Visibility
1 1/2 SM
Flight Rules
LIFR
Conditions
Mist
Cloud Levels
  • Overcast at 100' AGL
Temperature
13°C / 55°F
Dewpoint
12°C / 54°F
Humidity
94%
Altimeter
29.9" Hg
Pressure
1012.52 hPa